createdAt,value
2017-09-26T00:00:07.899Z,34.65
2017-09-26T00:00:42.428Z,34.88
2017-09-26T00:01:16.149Z,33.75
2017-09-26T00:01:49.683Z,37.53
2017-09-26T00:02:24.151Z,35.63
2017-09-26T00:02:57.867Z,36.72
2017-09-26T00:03:31.985Z,35.33
2017-09-26T00:04:06.270Z,35.25
2017-09-26T00:04:39.998Z,33.65
2017-09-26T00:05:13.724Z,35.35
2017-09-26T00:05:47.453Z,36.33
2017-09-26T00:06:21.208Z,34.60
2017-09-26T00:06:54.762Z,36.17
2017-09-26T00:07:28.476Z,34.85
2017-09-26T00:08:02.187Z,34.88
2017-09-26T00:08:36.228Z,37.45
2017-09-26T00:09:09.939Z,36.72
2017-09-26T00:09:43.668Z,36.67
2017-09-26T00:10:17.041Z,35.53
2017-09-26T00:10:50.767Z,36.90
2017-09-26T00:11:25.248Z,35.17
2017-09-26T00:11:58.960Z,38.10
2017-09-26T00:12:33.104Z,36.97
2017-09-26T00:13:06.816Z,37.10
2017-09-26T00:13:40.874Z,35.47
2017-09-26T00:14:14.413Z,39.15
2017-09-26T00:14:48.125Z,36.10
2017-09-26T00:15:22.610Z,36.88
2017-09-26T00:15:56.332Z,37.30
2017-09-26T00:16:30.807Z,38.13
2017-09-26T00:17:04.525Z,38.17
2017-09-26T00:17:38.232Z,36.17
2017-09-26T00:18:11.959Z,35.75
2017-09-26T00:18:45.989Z,38.58
2017-09-26T00:19:19.715Z,36.05
2017-09-26T00:19:53.458Z,34.67
2017-09-26T00:20:27.164Z,37.55
2017-09-26T00:21:00.888Z,38.78
2017-09-26T00:21:34.601Z,36.42
2017-09-26T00:22:08.466Z,38.95
2017-09-26T00:22:42.186Z,38.85
2017-09-26T00:23:15.906Z,39.25
2017-09-26T00:23:49.952Z,37.95
2017-09-26T00:24:23.400Z,38.43
2017-09-26T00:24:57.159Z,38.00
2017-09-26T00:25:30.612Z,40.67
2017-09-26T00:26:04.340Z,39.85
2017-09-26T00:26:38.365Z,38.47
2017-09-26T00:27:11.908Z,38.83
2017-09-26T00:27:45.625Z,38.50
2017-09-26T00:28:19.508Z,39.15
2017-09-26T00:28:53.564Z,37.10
2017-09-26T00:29:28.169Z,36.25
2017-09-26T00:30:02.649Z,36.33
2017-09-26T00:30:36.367Z,40.40
2017-09-26T00:31:10.936Z,38.45
2017-09-26T00:31:44.678Z,38.55
2017-09-26T00:32:18.403Z,39.08
2017-09-26T00:32:51.957Z,39.38
2017-09-26T00:33:25.619Z,37.28
2017-09-26T00:33:59.540Z,38.28
2017-09-26T00:34:33.069Z,38.00
2017-09-26T00:35:06.597Z,37.65
2017-09-26T00:35:40.908Z,40.03
2017-09-26T00:36:17.817Z,35.92
2017-09-26T00:36:51.500Z,38.08
2017-09-26T00:37:25.038Z,35.95
2017-09-26T00:38:00.161Z,38.78
2017-09-26T00:38:34.526Z,38.33
2017-09-26T00:39:08.380Z,38.22
2017-09-26T00:39:42.672Z,40.92
2017-09-26T00:40:16.978Z,38.33
2017-09-26T00:40:50.514Z,40.30
2017-09-26T00:41:23.709Z,39.72
2017-09-26T00:41:57.076Z,36.83
2017-09-26T00:42:30.861Z,38.40
2017-09-26T00:43:04.576Z,38.58
2017-09-26T00:43:38.297Z,37.28
2017-09-26T00:44:52.185Z,38.75
2017-09-26T00:45:26.432Z,38.10
2017-09-26T00:46:01.021Z,37.80
2017-09-26T00:46:34.754Z,40.53
2017-09-26T00:47:09.586Z,40.45
2017-09-26T00:47:43.361Z,39.63
2017-09-26T00:48:17.104Z,39.33
2017-09-26T00:48:50.841Z,40.20
2017-09-26T00:49:24.721Z,38.88
2017-09-26T00:49:58.872Z,39.30
2017-09-26T00:50:31.929Z,39.97
2017-09-26T00:51:05.129Z,39.25
2017-09-26T00:51:38.184Z,39.35
2017-09-26T00:52:11.229Z,38.03
2017-09-26T00:52:44.690Z,39.38
2017-09-26T00:53:18.512Z,40.53
2017-09-26T00:53:51.730Z,39.42
2017-09-26T00:54:25.806Z,39.17
2017-09-26T00:54:59.262Z,39.67
2017-09-26T00:55:33.766Z,41.28
2017-09-26T00:56:07.973Z,39.10
2017-09-26T00:56:42.351Z,41.17
2017-09-26T00:57:15.561Z,40.15
2017-09-26T00:57:48.792Z,40.85
2017-09-26T00:58:22.336Z,39.75
2017-09-26T00:58:55.513Z,38.80
2017-09-26T00:59:29.367Z,40.40
2017-09-26T01:00:02.791Z,40.72
2017-09-26T01:00:37.938Z,39.27
2017-09-26T01:01:27.924Z,40.80
2017-09-26T01:02:01.135Z,40.78
2017-09-26T01:02:34.715Z,40.67
2017-09-26T01:03:08.241Z,41.40
2017-09-26T01:03:43.352Z,41.20
2017-09-26T01:04:17.506Z,40.58
2017-09-26T01:04:55.989Z,41.22
2017-09-26T01:05:31.601Z,39.53
2017-09-26T01:06:05.617Z,39.42
2017-09-26T01:06:44.798Z,40.00
2017-09-26T01:07:25.766Z,41.72
2017-09-26T01:08:00.078Z,37.33
2017-09-26T01:08:33.280Z,41.58
2017-09-26T01:09:06.676Z,39.58
2017-09-26T01:09:43.119Z,41.20
2017-09-26T01:10:17.095Z,41.00
2017-09-26T01:10:50.831Z,41.72
2017-09-26T01:11:24.566Z,40.95
2017-09-26T01:11:58.719Z,42.78
2017-09-26T01:12:32.934Z,40.97
2017-09-26T01:13:06.317Z,41.08
2017-09-26T01:13:40.703Z,42.58
2017-09-26T01:14:14.446Z,41.55
2017-09-26T01:14:48.084Z,43.97
2017-09-26T01:15:21.780Z,41.47
2017-09-26T01:15:55.782Z,41.90
2017-09-26T01:16:29.159Z,40.67
2017-09-26T01:17:03.130Z,42.78
2017-09-26T01:17:36.662Z,44.20
2017-09-26T01:18:10.388Z,40.92
2017-09-26T01:18:44.119Z,43.25
2017-09-26T01:19:17.606Z,42.13
2017-09-26T01:19:50.796Z,43.33
2017-09-26T01:20:24.354Z,43.63
2017-09-26T01:20:57.895Z,43.05
2017-09-26T01:21:31.851Z,42.85
2017-09-26T01:22:05.092Z,39.65
2017-09-26T01:22:38.636Z,42.42
2017-09-26T01:23:12.180Z,42.13
2017-09-26T01:23:45.898Z,43.35
2017-09-26T01:24:19.611Z,41.78
2017-09-26T01:24:53.426Z,43.65
2017-09-26T01:25:27.931Z,42.85
2017-09-26T01:26:02.444Z,43.15
2017-09-26T01:26:36.924Z,43.53
2017-09-26T01:27:10.463Z,43.05
2017-09-26T01:27:44.176Z,43.83
2017-09-26T01:28:17.900Z,44.03
2017-09-26T01:28:51.466Z,43.33
2017-09-26T01:29:25.257Z,41.63
2017-09-26T01:29:58.992Z,41.22
2017-09-26T01:30:33.825Z,41.05
2017-09-26T01:31:07.554Z,41.63
2017-09-26T01:31:41.079Z,44.70
2017-09-26T01:32:15.566Z,43.63
2017-09-26T01:32:49.283Z,43.42
2017-09-26T01:33:23.028Z,42.72
2017-09-26T01:33:56.743Z,43.47
2017-09-26T01:34:30.459Z,43.38
2017-09-26T01:35:04.193Z,42.53
2017-09-26T01:35:37.947Z,45.12
2017-09-26T01:36:11.661Z,43.50
2017-09-26T01:36:45.395Z,43.00
2017-09-26T01:37:19.136Z,42.90
2017-09-26T01:37:52.847Z,44.70
2017-09-26T01:38:26.562Z,41.60
2017-09-26T01:39:00.285Z,42.08
2017-09-26T01:39:34.818Z,43.28
2017-09-26T01:40:08.558Z,41.65
2017-09-26T01:40:53.537Z,42.92
2017-09-26T01:41:28.014Z,43.83
2017-09-26T01:42:01.738Z,44.17
2017-09-26T01:42:36.232Z,42.97
2017-09-26T01:43:09.981Z,42.08
2017-09-26T01:43:43.689Z,43.20
2017-09-26T01:44:17.418Z,43.40
2017-09-26T01:44:51.897Z,42.72
2017-09-26T01:45:25.629Z,41.90
2017-09-26T01:45:59.368Z,41.37
2017-09-26T01:46:33.089Z,43.83
2017-09-26T01:47:07.572Z,41.80
2017-09-26T01:47:41.297Z,41.15
2017-09-26T01:48:15.639Z,41.95
2017-09-26T01:48:49.191Z,40.00
2017-09-26T01:49:22.471Z,40.87
2017-09-26T01:49:56.773Z,41.33
2017-09-26T01:50:31.098Z,41.97
2017-09-26T01:51:05.373Z,43.45
2017-09-26T01:51:39.743Z,42.55
2017-09-26T01:52:13.381Z,41.72
2017-09-26T01:52:47.682Z,42.80
2017-09-26T01:53:21.986Z,41.33
2017-09-26T01:53:56.290Z,44.17
2017-09-26T01:54:30.611Z,40.83
2017-09-26T01:55:04.148Z,44.75
2017-09-26T01:55:37.688Z,41.97
2017-09-26T01:56:17.011Z,42.78
2017-09-26T01:56:54.362Z,44.05
2017-09-26T01:57:28.709Z,41.45
2017-09-26T01:58:02.239Z,43.03
2017-09-26T01:58:39.755Z,43.70
2017-09-26T01:59:14.057Z,42.85
2017-09-26T01:59:48.513Z,42.38
2017-09-26T02:00:22.045Z,41.92
2017-09-26T02:00:55.600Z,43.13
2017-09-26T02:01:29.347Z,42.50
2017-09-26T02:02:03.257Z,39.63
2017-09-26T02:02:36.998Z,40.53
2017-09-26T02:03:11.480Z,41.05
2017-09-26T02:03:45.196Z,44.13
2017-09-26T02:04:19.695Z,41.83
2017-09-26T02:04:53.421Z,40.35
2017-09-26T02:05:27.148Z,43.28
2017-09-26T02:06:00.874Z,41.33
2017-09-26T02:06:36.257Z,40.90
2017-09-26T02:07:10.068Z,42.00
2017-09-26T02:07:43.794Z,40.12
2017-09-26T02:08:18.296Z,43.03
2017-09-26T02:08:52.783Z,41.08
2017-09-26T02:09:26.515Z,41.13
2017-09-26T02:10:00.234Z,42.42
2017-09-26T02:10:34.000Z,41.65
2017-09-26T02:11:07.737Z,40.67
2017-09-26T02:11:41.490Z,42.58
2017-09-26T02:12:15.020Z,39.47
2017-09-26T02:12:48.569Z,40.55
2017-09-26T02:13:22.295Z,40.05
2017-09-26T02:13:56.074Z,41.13
2017-09-26T02:14:29.801Z,40.90
2017-09-26T02:15:04.306Z,41.10
2017-09-26T02:15:38.033Z,40.17
2017-09-26T02:16:11.765Z,39.78
2017-09-26T02:16:45.829Z,40.53
2017-09-26T02:17:19.548Z,41.15
2017-09-26T02:17:53.276Z,40.42
2017-09-26T02:18:27.024Z,38.95
2017-09-26T02:19:00.765Z,40.45
2017-09-26T02:19:34.510Z,40.75
2017-09-26T02:20:08.350Z,43.70
2017-09-26T02:20:42.872Z,41.45
2017-09-26T02:21:16.592Z,41.47
2017-09-26T02:21:50.324Z,40.65
2017-09-26T02:22:24.043Z,40.97
2017-09-26T02:22:57.791Z,41.83
2017-09-26T02:23:31.511Z,39.33
2017-09-26T02:24:06.043Z,39.42
2017-09-26T02:24:39.786Z,39.03
2017-09-26T02:25:13.498Z,40.63
2017-09-26T02:25:47.988Z,41.17
2017-09-26T02:26:21.701Z,40.40
2017-09-26T02:26:56.508Z,40.15
2017-09-26T02:27:29.956Z,39.13
2017-09-26T02:28:03.671Z,40.03
2017-09-26T02:28:37.396Z,39.35
2017-09-26T02:29:11.152Z,40.60
2017-09-26T02:29:44.864Z,38.85
2017-09-26T02:30:19.168Z,40.70
2017-09-26T02:30:53.641Z,37.83
2017-09-26T02:31:27.368Z,38.35
2017-09-26T02:32:01.878Z,39.60
2017-09-26T02:32:36.420Z,39.80
2017-09-26T02:33:10.208Z,39.92
2017-09-26T02:33:43.932Z,38.65
2017-09-26T02:34:17.656Z,39.05
2017-09-26T02:34:52.137Z,38.63
2017-09-26T02:35:25.883Z,39.95
2017-09-26T02:35:59.611Z,39.55
2017-09-26T02:36:33.360Z,39.45
2017-09-26T02:37:07.120Z,39.40
2017-09-26T02:37:40.867Z,40.85
2017-09-26T02:38:14.588Z,39.40
2017-09-26T02:38:48.323Z,39.75
2017-09-26T02:39:21.757Z,39.63
2017-09-26T02:39:55.520Z,40.95
2017-09-26T02:40:29.248Z,39.55
2017-09-26T02:41:02.988Z,38.72
2017-09-26T02:41:36.728Z,39.65
2017-09-26T02:42:10.474Z,39.60
2017-09-26T02:42:44.211Z,40.20
2017-09-26T02:43:17.941Z,37.53
2017-09-26T02:43:52.423Z,37.40
2017-09-26T02:44:26.148Z,39.33
2017-09-26T02:44:59.880Z,39.30
2017-09-26T02:45:33.617Z,38.30
2017-09-26T02:46:08.109Z,37.20
2017-09-26T02:46:41.822Z,38.78
2017-09-26T02:47:15.561Z,40.67
2017-09-26T02:47:49.286Z,40.65
2017-09-26T02:48:23.813Z,37.88
2017-09-26T02:48:57.519Z,38.75
2017-09-26T02:49:31.246Z,39.55
2017-09-26T02:50:04.968Z,37.33
2017-09-26T02:50:39.864Z,39.65
2017-09-26T02:51:13.600Z,40.17
2017-09-26T02:51:47.080Z,41.03
2017-09-26T02:52:20.835Z,38.83
2017-09-26T02:52:54.692Z,38.05
2017-09-26T02:53:28.130Z,38.93
2017-09-26T02:54:02.606Z,38.33
2017-09-26T02:54:36.855Z,37.30
2017-09-26T02:55:10.224Z,39.90
2017-09-26T02:55:43.710Z,41.27
2017-09-26T02:56:18.194Z,38.40
2017-09-26T02:56:51.924Z,40.25
2017-09-26T02:57:26.078Z,39.15
2017-09-26T02:57:59.802Z,42.25
2017-09-26T02:58:34.296Z,39.35
2017-09-26T02:59:08.036Z,39.10
2017-09-26T02:59:41.806Z,38.97
2017-09-26T03:00:16.129Z,40.45
2017-09-26T03:00:49.852Z,41.45
2017-09-26T03:01:23.590Z,39.00
2017-09-26T03:01:57.034Z,39.93
2017-09-26T03:02:30.644Z,38.40
2017-09-26T03:03:04.942Z,40.80
2017-09-26T03:03:38.393Z,38.83
2017-09-26T03:04:12.124Z,40.35
2017-09-26T03:04:45.588Z,38.53
2017-09-26T03:05:19.323Z,40.45
2017-09-26T03:05:52.760Z,39.87
2017-09-26T03:06:26.993Z,39.73
2017-09-26T03:07:00.445Z,40.37
2017-09-26T03:07:34.505Z,39.30
2017-09-26T03:08:07.947Z,41.33
2017-09-26T03:08:41.661Z,40.50
2017-09-26T03:09:15.784Z,41.13
2017-09-26T03:09:49.514Z,42.38
2017-09-26T03:10:23.278Z,42.70
2017-09-26T03:10:57.013Z,39.95
2017-09-26T03:11:30.724Z,42.42
2017-09-26T03:12:05.192Z,41.83
2017-09-26T03:12:38.947Z,43.50
2017-09-26T03:13:12.676Z,43.13
2017-09-26T03:13:46.412Z,42.60
2017-09-26T03:14:20.897Z,42.97
2017-09-26T03:14:54.621Z,42.45
2017-09-26T03:15:28.333Z,44.30
2017-09-26T03:16:02.042Z,43.13
2017-09-26T03:16:35.761Z,40.55
2017-09-26T03:17:09.507Z,42.38
2017-09-26T03:17:43.269Z,41.45
2017-09-26T03:18:16.988Z,44.42
2017-09-26T03:18:50.705Z,43.33
2017-09-26T03:19:24.431Z,44.67
2017-09-26T03:19:58.965Z,42.28
2017-09-26T03:20:32.692Z,46.80
2017-09-26T03:21:06.436Z,45.05
2017-09-26T03:21:40.192Z,46.08
2017-09-26T03:22:13.943Z,43.60
2017-09-26T03:22:47.694Z,46.70
2017-09-26T03:23:22.195Z,44.67
2017-09-26T03:23:55.961Z,43.65
2017-09-26T03:24:29.684Z,45.63
2017-09-26T03:25:04.186Z,46.25
2017-09-26T03:25:38.673Z,46.30
2017-09-26T03:26:12.390Z,44.08
2017-09-26T03:26:47.005Z,43.72
2017-09-26T03:27:21.507Z,45.78
2017-09-26T03:27:55.840Z,46.37
2017-09-26T03:28:29.568Z,45.58
2017-09-26T03:29:03.295Z,46.45
2017-09-26T03:29:37.817Z,44.83
2017-09-26T03:30:12.325Z,46.50
2017-09-26T03:30:46.652Z,45.80
2017-09-26T03:31:20.205Z,45.33
2017-09-26T03:31:54.508Z,46.20
2017-09-26T03:32:29.010Z,47.62
2017-09-26T03:33:02.761Z,47.25
2017-09-26T03:33:36.293Z,45.47
2017-09-26T03:34:10.707Z,47.22
2017-09-26T03:34:45.016Z,48.25
2017-09-26T03:35:19.320Z,45.12
2017-09-26T03:35:53.829Z,45.03
2017-09-26T03:36:28.171Z,46.78
2017-09-26T03:37:01.692Z,48.10
2017-09-26T03:37:35.229Z,46.30
2017-09-26T03:38:09.124Z,45.25
2017-09-26T03:38:42.639Z,45.70
2017-09-26T03:39:16.184Z,46.40
2017-09-26T03:39:49.659Z,46.37
2017-09-26T03:40:23.404Z,45.45
2017-09-26T03:40:57.116Z,47.47
2017-09-26T03:41:30.842Z,45.78
2017-09-26T03:42:04.304Z,45.13
2017-09-26T03:42:38.813Z,45.12
2017-09-26T03:43:13.351Z,46.53
2017-09-26T03:43:47.081Z,45.55
2017-09-26T03:44:20.803Z,45.75
2017-09-26T03:44:55.329Z,46.58
2017-09-26T03:45:28.863Z,47.97
2017-09-26T03:46:02.395Z,45.15
2017-09-26T03:46:36.808Z,47.22
2017-09-26T03:47:10.533Z,44.70
2017-09-26T03:47:44.248Z,45.22
2017-09-26T03:48:17.863Z,42.45
2017-09-26T03:48:52.363Z,43.42
2017-09-26T03:49:26.095Z,45.58
2017-09-26T03:49:59.809Z,43.75
2017-09-26T03:50:33.553Z,45.83
2017-09-26T03:51:08.030Z,44.47
2017-09-26T03:51:41.754Z,43.50
2017-09-26T03:52:15.484Z,41.03
2017-09-26T03:52:48.939Z,43.53
2017-09-26T03:53:22.154Z,44.63
2017-09-26T03:53:55.697Z,43.15
2017-09-26T03:54:30.202Z,42.65
2017-09-26T03:55:04.690Z,43.30
2017-09-26T03:55:38.419Z,43.97
2017-09-26T03:56:12.152Z,44.00
2017-09-26T03:56:45.876Z,42.35
2017-09-26T03:57:20.026Z,45.20
2017-09-26T03:57:53.570Z,44.33
2017-09-26T03:58:27.535Z,44.97
2017-09-26T03:59:00.374Z,44.55
2017-09-26T03:59:33.909Z,43.33
2017-09-26T04:00:07.446Z,41.95
2017-09-26T04:00:41.418Z,44.55
2017-09-26T04:01:14.961Z,43.90
2017-09-26T04:01:48.011Z,43.08
2017-09-26T04:02:21.541Z,44.28
2017-09-26T04:02:55.548Z,43.70
2017-09-26T04:03:29.851Z,45.10
2017-09-26T04:04:03.481Z,44.63
2017-09-26T04:04:37.192Z,44.58
2017-09-26T04:05:10.910Z,44.50
2017-09-26T04:05:45.063Z,45.58
2017-09-26T04:06:17.863Z,44.87
2017-09-26T04:06:50.888Z,45.90
2017-09-26T04:07:23.921Z,43.08
2017-09-26T04:07:57.358Z,43.15
2017-09-26T04:08:30.413Z,43.45
2017-09-26T04:09:03.384Z,40.38
2017-09-26T04:09:36.845Z,39.90
2017-09-26T04:10:10.303Z,44.47
2017-09-26T04:10:44.055Z,43.58
2017-09-26T04:11:17.791Z,43.10
2017-09-26T04:11:51.501Z,42.60
2017-09-26T04:12:24.987Z,42.23
2017-09-26T04:12:59.522Z,42.03
2017-09-26T04:13:33.286Z,41.20
2017-09-26T04:14:07.030Z,42.25
2017-09-26T04:14:40.746Z,43.50
2017-09-26T04:15:14.284Z,41.03
2017-09-26T04:15:48.029Z,39.45
2017-09-26T04:16:21.749Z,40.75
2017-09-26T04:16:55.460Z,43.58
2017-09-26T04:17:29.230Z,42.58
2017-09-26T04:18:03.357Z,42.47
2017-09-26T04:18:37.448Z,43.15
2017-09-26T04:19:10.815Z,44.35
2017-09-26T04:19:45.300Z,42.55
2017-09-26T04:20:19.001Z,42.55
2017-09-26T04:20:52.394Z,41.35
2017-09-26T04:21:26.735Z,44.72
2017-09-26T04:22:00.219Z,43.73
2017-09-26T04:22:32.803Z,44.00
2017-09-26T04:23:06.523Z,43.83
2017-09-26T04:23:39.937Z,42.93
2017-09-26T04:24:13.392Z,45.00
2017-09-26T04:24:46.857Z,42.10
2017-09-26T04:25:20.583Z,41.65
2017-09-26T04:25:54.724Z,43.55
2017-09-26T04:26:28.488Z,41.42
2017-09-26T04:27:02.230Z,41.67
2017-09-26T04:27:35.602Z,42.50
2017-09-26T04:28:08.623Z,42.45
2017-09-26T04:28:43.137Z,41.33
2017-09-26T04:29:17.619Z,39.30
2017-09-26T04:29:51.072Z,44.40
2017-09-26T04:30:24.796Z,40.60
2017-09-26T04:30:58.513Z,41.90
2017-09-26T04:31:32.229Z,43.15
2017-09-26T04:32:05.699Z,44.00
2017-09-26T04:32:39.434Z,40.12
2017-09-26T04:33:13.162Z,40.30
2017-09-26T04:33:47.661Z,40.53
2017-09-26T04:34:21.463Z,41.97
2017-09-26T04:34:55.949Z,42.72
2017-09-26T04:35:29.660Z,40.22
2017-09-26T04:36:03.102Z,38.37
2017-09-26T04:36:37.317Z,42.60
2017-09-26T04:37:11.029Z,43.80
2017-09-26T04:37:45.582Z,45.30
2017-09-26T04:38:19.296Z,44.35
2017-09-26T04:38:53.044Z,43.10
2017-09-26T04:39:26.778Z,43.87
2017-09-26T04:40:00.512Z,43.75
2017-09-26T04:40:34.091Z,43.87
2017-09-26T04:41:07.817Z,42.55
2017-09-26T04:41:41.585Z,42.45
2017-09-26T04:42:15.920Z,43.30
2017-09-26T04:42:49.513Z,43.85
2017-09-26T04:43:23.306Z,43.83
2017-09-26T04:43:56.709Z,45.63
2017-09-26T04:44:30.270Z,44.88
2017-09-26T04:45:03.828Z,42.53
2017-09-26T04:45:38.334Z,44.72
2017-09-26T04:46:11.961Z,43.03
2017-09-26T04:46:46.202Z,44.67
2017-09-26T04:47:19.916Z,44.83
2017-09-26T04:47:54.409Z,43.63
2017-09-26T04:48:28.117Z,42.75
2017-09-26T04:49:01.683Z,43.80
2017-09-26T04:49:35.409Z,43.50
2017-09-26T04:50:09.699Z,43.90
2017-09-26T04:50:44.309Z,43.55
2017-09-26T04:51:18.805Z,43.20
2017-09-26T04:51:52.521Z,41.65
2017-09-26T04:52:26.248Z,41.03
2017-09-26T04:52:59.977Z,41.30
2017-09-26T04:53:33.711Z,42.62
2017-09-26T04:54:07.831Z,42.97
2017-09-26T04:54:41.560Z,41.70
2017-09-26T04:55:16.046Z,40.20
2017-09-26T04:55:50.253Z,40.53
2017-09-26T04:56:23.753Z,39.50
2017-09-26T04:56:58.572Z,41.25
2017-09-26T04:57:32.297Z,39.88
2017-09-26T04:58:06.016Z,40.40
2017-09-26T04:58:39.744Z,40.00
2017-09-26T04:59:14.311Z,41.90
2017-09-26T04:59:48.110Z,41.03
2017-09-26T05:00:21.645Z,40.00
2017-09-26T05:00:55.949Z,38.63
2017-09-26T05:01:30.261Z,39.28
2017-09-26T05:02:04.006Z,41.47
2017-09-26T05:02:37.732Z,41.65
2017-09-26T05:03:12.217Z,39.00
2017-09-26T05:03:45.932Z,40.33
2017-09-26T05:04:20.444Z,40.53
2017-09-26T05:04:54.746Z,39.17
2017-09-26T05:05:29.055Z,40.28
2017-09-26T05:06:03.535Z,39.80
2017-09-26T05:06:37.265Z,40.42
2017-09-26T05:07:10.992Z,39.05
2017-09-26T05:07:44.718Z,40.33
2017-09-26T05:08:18.281Z,37.70
2017-09-26T05:08:52.042Z,41.05
2017-09-26T05:09:25.788Z,38.90
2017-09-26T05:09:59.514Z,40.67
2017-09-26T05:10:33.068Z,41.40
2017-09-26T05:11:06.785Z,39.00
2017-09-26T05:11:40.517Z,40.95
2017-09-26T05:12:14.251Z,41.28
2017-09-26T05:12:48.561Z,39.88
2017-09-26T05:13:22.370Z,38.97
2017-09-26T05:13:56.090Z,40.90
2017-09-26T05:14:30.157Z,38.58
2017-09-26T05:15:03.726Z,40.03
2017-09-26T05:15:37.484Z,39.40
2017-09-26T05:16:11.310Z,39.35
2017-09-26T05:16:45.800Z,39.08
2017-09-26T05:17:19.548Z,40.50
2017-09-26T05:17:53.127Z,37.67
2017-09-26T05:18:26.887Z,37.53
2017-09-26T05:19:01.192Z,40.90
2017-09-26T05:19:35.701Z,39.58
2017-09-26T05:20:10.206Z,38.40
2017-09-26T05:20:44.769Z,39.35
2017-09-26T05:21:18.491Z,36.90
2017-09-26T05:21:52.205Z,39.10
2017-09-26T05:22:26.688Z,36.97
2017-09-26T05:23:00.401Z,37.10
2017-09-26T05:23:34.895Z,37.05
2017-09-26T05:24:08.607Z,35.20
2017-09-26T05:24:43.105Z,36.38
2017-09-26T05:25:17.578Z,36.42
2017-09-26T05:25:51.307Z,38.63
2017-09-26T05:26:24.775Z,35.13
2017-09-26T05:26:58.524Z,36.63
2017-09-26T05:27:32.236Z,36.95
2017-09-26T05:28:05.942Z,36.45
2017-09-26T05:28:39.665Z,36.13
2017-09-26T05:29:13.402Z,38.65
2017-09-26T05:29:47.151Z,36.45
2017-09-26T05:30:21.643Z,35.97
2017-09-26T05:30:56.128Z,37.38
2017-09-26T05:31:29.870Z,37.38
2017-09-26T05:32:03.594Z,33.45
2017-09-26T05:32:37.328Z,35.45
2017-09-26T05:33:11.812Z,34.10
2017-09-26T05:33:45.528Z,34.88
2017-09-26T05:34:20.034Z,34.65
2017-09-26T05:34:54.544Z,36.55
2017-09-26T05:35:29.040Z,36.85
2017-09-26T05:36:02.793Z,35.40
2017-09-26T05:36:36.316Z,34.95
2017-09-26T05:37:09.893Z,35.50
2017-09-26T05:37:43.629Z,36.72
2017-09-26T05:38:17.356Z,33.90
2017-09-26T05:38:51.091Z,34.60
2017-09-26T05:39:25.585Z,34.70
2017-09-26T05:39:59.344Z,34.22
2017-09-26T05:40:32.882Z,32.83
2017-09-26T05:41:07.372Z,36.63
2017-09-26T05:41:41.081Z,34.17
2017-09-26T05:42:15.596Z,34.10
2017-09-26T05:42:49.932Z,32.90
2017-09-26T05:43:23.647Z,35.00
2017-09-26T05:43:57.376Z,32.55
2017-09-26T05:44:31.118Z,33.95
2017-09-26T05:45:04.565Z,35.85
2017-09-26T05:45:38.294Z,34.67
2017-09-26T05:46:11.854Z,33.45
2017-09-26T05:46:45.604Z,36.63
2017-09-26T05:47:19.328Z,34.50
2017-09-26T05:47:53.054Z,33.80
2017-09-26T05:48:26.777Z,34.40
2017-09-26T05:49:00.500Z,34.72
2017-09-26T05:49:34.272Z,33.65
2017-09-26T05:50:08.783Z,32.35
2017-09-26T05:50:42.284Z,33.43
2017-09-26T05:51:15.747Z,30.10
2017-09-26T05:51:50.261Z,32.35
2017-09-26T05:52:24.789Z,32.13
2017-09-26T05:52:58.240Z,34.57
2017-09-26T05:53:31.696Z,32.17
2017-09-26T05:54:05.077Z,32.10
2017-09-26T05:54:38.828Z,33.20
2017-09-26T05:55:12.577Z,33.40
2017-09-26T05:55:46.293Z,34.17
2017-09-26T05:56:20.805Z,33.15
2017-09-26T05:56:55.299Z,34.10
2017-09-26T05:57:28.747Z,33.67
2017-09-26T05:58:02.491Z,33.65
2017-09-26T05:58:36.977Z,33.00
2017-09-26T05:59:10.946Z,34.28
2017-09-26T05:59:44.805Z,33.47
2017-09-26T06:00:18.556Z,33.75
2017-09-26T06:00:52.278Z,32.67
2017-09-26T06:01:25.750Z,32.87
2017-09-26T06:01:59.252Z,33.50
2017-09-26T06:02:32.981Z,33.45
2017-09-26T06:03:06.515Z,32.55
2017-09-26T06:03:41.017Z,32.17
2017-09-26T06:04:15.492Z,33.63
2017-09-26T06:04:49.221Z,32.40
2017-09-26T06:05:23.540Z,33.60
2017-09-26T06:05:58.020Z,33.25
2017-09-26T06:06:31.723Z,33.75
2017-09-26T06:07:06.209Z,33.10
2017-09-26T06:07:39.676Z,34.50
2017-09-26T06:08:13.420Z,32.38
2017-09-26T06:08:47.146Z,35.80
2017-09-26T06:09:20.889Z,33.10
2017-09-26T06:09:54.611Z,36.22
2017-09-26T06:10:28.345Z,35.35
2017-09-26T06:11:01.889Z,34.88
2017-09-26T06:11:35.169Z,33.43
2017-09-26T06:12:08.885Z,34.55
2017-09-26T06:12:42.605Z,35.55
2017-09-26T06:13:16.056Z,34.07
2017-09-26T06:13:49.090Z,34.55
2017-09-26T06:14:23.598Z,34.10
2017-09-26T06:14:58.104Z,34.13
2017-09-26T06:15:32.609Z,34.22
2017-09-26T06:16:07.103Z,35.67
2017-09-26T06:16:41.610Z,34.80
2017-09-26T06:17:15.346Z,36.28
2017-09-26T06:17:49.080Z,34.60
2017-09-26T06:18:23.326Z,33.00
2017-09-26T06:18:56.774Z,33.40
2017-09-26T06:19:30.487Z,36.15
2017-09-26T06:20:04.640Z,35.25
2017-09-26T06:20:38.712Z,34.75
2017-09-26T06:21:12.247Z,34.42
2017-09-26T06:21:45.965Z,36.33
2017-09-26T06:22:20.453Z,34.22
2017-09-26T06:22:54.601Z,33.97
2017-09-26T06:23:28.328Z,33.35
2017-09-26T06:24:01.851Z,36.15
2017-09-26T06:24:36.337Z,35.45
2017-09-26T06:25:10.045Z,34.38
2017-09-26T06:25:44.538Z,34.42
2017-09-26T06:26:18.859Z,34.75
2017-09-26T06:26:52.379Z,33.67
2017-09-26T06:27:26.090Z,35.88
2017-09-26T06:27:59.822Z,32.72
2017-09-26T06:28:33.357Z,34.03
2017-09-26T06:29:06.880Z,33.40
2017-09-26T06:29:40.591Z,32.97
2017-09-26T06:30:15.131Z,33.72
2017-09-26T06:30:48.889Z,33.67
2017-09-26T06:31:22.172Z,33.67
2017-09-26T06:31:56.473Z,34.20
2017-09-26T06:32:30.970Z,31.40
2017-09-26T06:33:05.456Z,32.20
2017-09-26T06:33:39.677Z,33.10
2017-09-26T06:34:13.211Z,33.28
2017-09-26T06:34:46.470Z,32.37
2017-09-26T06:35:20.951Z,31.65
2017-09-26T06:35:54.676Z,30.23
2017-09-26T06:36:28.414Z,29.87
2017-09-26T06:37:02.172Z,32.40
2017-09-26T06:37:35.924Z,33.75
2017-09-26T06:38:09.642Z,32.17
2017-09-26T06:38:43.098Z,30.47
2017-09-26T06:39:17.618Z,30.05
2017-09-26T06:39:51.067Z,31.53
2017-09-26T06:40:24.783Z,29.48
2017-09-26T06:40:59.306Z,31.73
2017-09-26T06:41:33.795Z,32.47
2017-09-26T06:42:07.516Z,34.05
2017-09-26T06:42:41.872Z,33.42
2017-09-26T06:43:15.597Z,31.25
2017-09-26T06:43:50.106Z,32.90
2017-09-26T06:44:24.619Z,32.50
2017-09-26T06:44:58.770Z,32.17
2017-09-26T06:45:32.158Z,32.45
2017-09-26T06:46:05.267Z,32.45
2017-09-26T06:46:38.977Z,30.75
2017-09-26T06:47:13.508Z,34.47
2017-09-26T06:47:47.225Z,33.53
2017-09-26T06:48:20.950Z,33.72
2017-09-26T06:48:55.459Z,33.08
2017-09-26T06:49:29.188Z,33.25
2017-09-26T06:50:02.725Z,33.40
2017-09-26T06:50:36.481Z,31.80
2017-09-26T06:51:10.514Z,33.40
2017-09-26T06:51:44.236Z,33.55
2017-09-26T06:52:18.738Z,35.33
2017-09-26T06:52:53.233Z,32.28
2017-09-26T06:53:26.958Z,31.77
2017-09-26T06:54:00.399Z,34.40
2017-09-26T06:54:34.220Z,31.12
2017-09-26T06:55:08.697Z,31.67
2017-09-26T06:55:42.705Z,32.67
2017-09-26T06:56:16.450Z,30.58
2017-09-26T06:56:50.173Z,32.92
2017-09-26T06:57:23.918Z,32.60
2017-09-26T06:57:57.637Z,32.97
2017-09-26T06:58:31.477Z,32.05
2017-09-26T06:59:06.758Z,32.05
2017-09-26T06:59:40.481Z,33.88
2017-09-26T07:00:14.197Z,31.92
2017-09-26T07:00:47.657Z,32.97
2017-09-26T07:01:22.180Z,32.03
2017-09-26T07:01:56.667Z,34.83
2017-09-26T07:02:30.424Z,32.90
2017-09-26T07:03:04.150Z,33.22
2017-09-26T07:03:37.607Z,32.23
2017-09-26T07:04:11.336Z,32.40
2017-09-26T07:04:45.844Z,32.53
2017-09-26T07:05:20.331Z,32.10
2017-09-26T07:05:54.041Z,33.88
2017-09-26T07:06:27.797Z,34.63
2017-09-26T07:07:01.529Z,32.65
2017-09-26T07:07:36.021Z,32.60
2017-09-26T07:08:09.758Z,32.05
2017-09-26T07:08:43.469Z,31.90
2017-09-26T07:09:17.195Z,32.60
2017-09-26T07:09:50.905Z,33.03
2017-09-26T07:10:25.441Z,34.05
2017-09-26T07:10:59.401Z,32.67
2017-09-26T07:11:33.908Z,33.50
2017-09-26T07:12:07.639Z,32.47
2017-09-26T07:12:41.354Z,34.92
2017-09-26T07:13:15.069Z,33.40
2017-09-26T07:13:48.809Z,33.95
2017-09-26T07:14:22.525Z,32.88
2017-09-26T07:14:56.749Z,31.80
2017-09-26T07:15:30.964Z,32.17
2017-09-26T07:16:04.477Z,33.03
2017-09-26T07:16:39.312Z,34.47
2017-09-26T07:17:12.787Z,32.27
2017-09-26T07:17:46.784Z,32.60